Terminal Aerodrome Forecast
Issued by NWS

Home | Current Version | Previous Version | Text Only | Print | Product List | Glossary On
Versions: 1 2 3 4 5 6 7 8 9 10 11 12 13 14 15 16 17 18 19 20
119
FTUS42 KFFC 122338
TAFPDK
TAF
KPDK 122338Z 1300/1324 30011G18KT P6SM FEW150
     FM130300 32014G22KT P6SM SKC
     FM131800 33012KT P6SM SKC
     FM132300 33009KT P6SM FEW250=

USA.gov is the U.S. government's official web portal to all federal, state and local government web resources and services.